CLYO2: Little River nr Cloudy 5ENE

Data processed at Thu Jan 04 2018 23:08


All information presented herein is the property of the government of the United States of America and may be revised or deleted at any time without prior notice.
Dissemination of this information without the expressed written consent of the Public Affairs Office, Tulsa District U.S. Army Corps of Engineers is strictly prohibited.
These data are gathered electronically and, as presented, have not undergone any form of quality control. These data are not guaranteed to be valid or correct.
Go to home page.
Go to station list.

Downstream station:


Previous Day
Next Day
Current Day
    
SHEF ID:       CLYO2     Little River nr Cloudy 5ENE
STATION TYPE:  

               PRECIP     STAGE  RIV-FLOW   VOLTAGE  BAT-LOAD
                   in        ft       cfs      volt      volt
              Ccp-Rev   Ccp-Rev   Ccp-Rev   Ccp-Rev   Ccp-Rev
(US/Central)
01/02 00:00      0.00      4.10       127     12.60     12.54
01/02 01:00      0.00      4.10       127     12.54     12.48
01/02 02:00      0.00      4.09       123     12.48     12.42
01/02 03:00      0.00      4.08       120     12.48     12.42
01/02 04:00      0.00      4.09       123     12.42     12.36
01/02 05:00      0.00      4.08       120     12.36     12.30
01/02 06:00      0.00      4.08       120     12.36     12.30
01/02 07:00      0.00      4.09       123     12.36     12.24
01/02 08:00      0.00      4.08       120     12.36     12.24
01/02 09:00      0.00      4.08       120     12.83     12.30
01/02 10:00      0.00      4.09       123     13.77     12.83
01/02 11:00      0.00      4.08       120     13.88     13.59
01/02 12:00      0.00      4.09       123     14.00     13.53
01/02 13:00      0.00      4.08       120     13.88     13.48
01/02 14:00      0.00      4.08       120     13.83     13.53
01/02 15:00      0.00      4.07       116     13.65     13.65
01/02 16:00      0.00      4.08       120     13.48     13.53
01/02 17:00      0.00      4.08       120     13.18     13.36
01/02 18:00      0.00      4.08       120     13.00     13.12
01/02 19:00      0.00      4.07       116     12.83     12.89
01/02 20:00      0.00      4.06       113     12.71     12.71
01/02 21:00      0.00      4.06       113     12.71     12.65
01/02 22:00      0.00      4.07       116     12.65     12.60
01/02 23:00      0.00      4.05       109     12.65     12.60